Hauptseite
METAR-TAF:

METAR-TAF

Flughäfen :

Diepholz, Deutschland

Fliegerhorst Diepholz

Breite: 52-35N, Länge: 008-21E, Höhe: 39 m

Beobachtung

Neuester Wetterbericht von vor 41 Minuten, um 08:20 UTC
Wind 11 kt aus Süd
Temperatur 10°C
Luftfeuchtigkeit 76%
Luftdruck 1002 hPa
Sichtweite 10 km oder mehr
Leicht bewölkt in der Höhe von 3300 ft
Durchbrochene Bewölkung in der Höhe von 4000 ft

METAR: ETND 270820Z 19011KT 9999 FEW033 BKN040 10/06 Q1002 BLU

Zeit: 10:01 (09:01 UTC)


TAF: fehlend

Wetterbeobachtungen und Prognosen von mehr als 4000 Flughäfen (METAR und TAF Bericht).

Die verfügbaren Stationen werden durch gelbe und rote Markierungen auf der Karte dargestellt.

Führen Sie die Maus auf sie, um den Namen der Station zu sehen.

Darauf klicken, um die Beobachtung von Wetterbeobachtungen und Prognosen zu sehen.

Um die Karte zu ändern : klicken Sie auf den grünen Tasten mit einem schwarzen Kreuz Zum Vergrößern, auf den grünen Button mit einem Gedankenstrich zu verkleinern, oder auf die grünen Pfeile für benachbarte Karten.


METAR-TAF: